Time;durP1;ratioP1;P1;durP2;ratioP2;P2;SDS_P1;SDS_P2;PMS_P1;PMS_P2;Temp;Humidity;BMP_temperature;BMP_pressure;BME280_temperature;BME280_humidity;BME280_pressure;Samples;Min_cycle;Max_cycle;Signal;HPM_P1;HPM_P2
2023/10/19 00:00:35;;;;;;;34.83;20.55;;;;;;;;;;5060774;28;20183;-66
2023/10/19 00:03:02;;;;;;;40.90;22.35;;;;;;;;;;5070751;28;20028;-66
2023/10/19 00:05:29;;;;;;;29.67;18.95;;;;;;;;;;5063649;28;20472;-66
2023/10/19 00:07:57;;;;;;;36.08;21.52;;;;;;;;;;5053799;28;20037;-66
2023/10/19 00:10:22;;;;;;;31.88;21.38;;;;;;;;;;5053694;28;20049;-66
2023/10/19 00:12:57;;;;;;;34.40;22.00;;;;;;;;;;5065832;28;20043;-66
2023/10/19 00:15:24;;;;;;;30.70;19.30;;;;;;;;;;5063988;28;20027;-66
2023/10/19 00:17:53;;;;;;;28.92;18.48;;;;;;;;;;5053980;28;20021;-66
2023/10/19 00:20:35;;;;;;;31.13;18.77;;;;;;;;;;5053254;28;20029;-66
2023/10/19 00:23:05;;;;;;;31.27;17.60;;;;;;;;;;5054805;28;20029;-66
2023/10/19 00:25:31;;;;;;;31.05;18.52;;;;;;;;;;5053457;28;20120;-66
2023/10/19 00:27:56;;;;;;;27.40;18.30;;;;;;;;;;5056906;28;20028;-66
2023/10/19 00:30:23;;;;;;;25.67;16.47;;;;;;;;;;5072507;28;20078;-66
2023/10/19 00:32:49;;;;;;;28.15;17.10;;;;;;;;;;5072774;28;20256;-66
2023/10/19 00:35:34;;;;;;;30.27;17.73;;;;;;;;;;5065801;28;20017;-66
2023/10/19 00:38:27;;;;;;;27.23;16.73;;;;;;;;;;5067276;28;20452;-66
2023/10/19 00:43:44;;;;;;;26.67;15.80;;;;;;;;;;5057796;28;20033;-65
2023/10/19 00:48:54;;;;;;;27.42;17.35;;;;;;;;;;5055417;28;20017;-66
2023/10/19 00:54:03;;;;;;;31.35;16.08;;;;;;;;;;5069191;28;20391;-66
2023/10/19 00:56:32;;;;;;;27.77;16.33;;;;;;;;;;5070730;28;20480;-66
2023/10/19 00:59:12;;;;;;;22.98;16.25;;;;;;;;;;5066702;28;20111;-66
2023/10/19 01:01:43;;;;;;;23.77;15.15;;;;;;;;;;5061072;28;20023;-66
2023/10/19 01:04:13;;;;;;;27.90;16.70;;;;;;;;;;5053419;28;20428;-66
2023/10/19 01:06:39;;;;;;;26.63;15.45;;;;;;;;;;5053003;28;20021;-66
2023/10/19 01:09:05;;;;;;;27.80;16.42;;;;;;;;;;5056748;28;22010;-66
2023/10/19 01:11:30;;;;;;;23.80;15.77;;;;;;;;;;5072893;28;20024;-66
2023/10/19 01:13:56;;;;;;;22.20;15.27;;;;;;;;;;5071033;28;20040;-66
2023/10/19 01:16:21;;;;;;;26.57;16.13;;;;;;;;;;5072467;28;20025;-66
2023/10/19 01:18:59;;;;;;;27.67;16.88;;;;;;;;;;5072397;28;20344;-66
2023/10/19 01:21:37;;;;;;;28.92;17.02;;;;;;;;;;5054070;28;20557;-66
2023/10/19 01:24:16;;;;;;;31.30;17.52;;;;;;;;;;5053111;28;20429;-66
2023/10/19 01:26:42;;;;;;;24.00;15.88;;;;;;;;;;5053188;28;20496;-66
2023/10/19 01:29:14;;;;;;;33.60;18.33;;;;;;;;;;5054153;28;20028;-66
2023/10/19 01:31:52;;;;;;;25.98;16.60;;;;;;;;;;5068391;28;20021;-66
2023/10/19 01:34:20;;;;;;;26.67;16.73;;;;;;;;;;5065308;28;20066;-66
2023/10/19 01:36:45;;;;;;;31.70;16.75;;;;;;;;;;5063481;28;20047;-66
2023/10/19 01:39:11;;;;;;;25.75;17.88;;;;;;;;;;5066706;28;20021;-66
2023/10/19 01:41:36;;;;;;;26.10;16.33;;;;;;;;;;5070413;28;20031;-66
2023/10/19 01:44:06;;;;;;;32.55;16.25;;;;;;;;;;5069332;28;20016;-66
2023/10/19 01:46:33;;;;;;;29.98;16.80;;;;;;;;;;5072685;28;20384;-66
2023/10/19 01:48:59;;;;;;;26.90;16.70;;;;;;;;;;5065686;28;20048;-66
2023/10/19 01:51:26;;;;;;;31.42;17.63;;;;;;;;;;5062339;28;20476;-66
2023/10/19 01:53:52;;;;;;;26.35;16.80;;;;;;;;;;5063227;28;20476;-66
2023/10/19 01:56:17;;;;;;;26.45;14.85;;;;;;;;;;5071114;28;20032;-66
2023/10/19 01:58:46;;;;;;;27.93;15.03;;;;;;;;;;5075834;28;20017;-66
2023/10/19 02:03:37;;;;;;;28.10;15.03;;;;;;;;;;5074380;28;20031;-66
2023/10/19 02:07:02;;;;;;;24.77;14.48;;;;;;;;;;5075970;28;20055;-66
2023/10/19 02:09:00;;;;;;;22.58;14.38;;;;;;;;;;5054677;28;20052;-66
2023/10/19 02:11:26;;;;;;;22.17;13.55;;;;;;;;;;5056193;28;20017;-66
2023/10/19 02:13:54;;;;;;;25.13;14.60;;;;;;;;;;5063052;28;20023;-66
2023/10/19 02:16:29;;;;;;;24.60;15.30;;;;;;;;;;5073002;28;20528;-66
2023/10/19 02:18:55;;;;;;;22.08;13.52;;;;;;;;;;5062264;28;20016;-66
2023/10/19 02:21:26;;;;;;;29.35;14.68;;;;;;;;;;5073879;28;20091;-66
2023/10/19 02:23:52;;;;;;;21.33;14.57;;;;;;;;;;5068855;28;20084;-66
2023/10/19 02:26:19;;;;;;;20.30;12.50;;;;;;;;;;5075618;28;20031;-66
2023/10/19 02:28:45;;;;;;;25.80;13.50;;;;;;;;;;5064939;28;20032;-66
2023/10/19 02:31:21;;;;;;;28.63;18.50;;;;;;;;;;5055759;28;20043;-66
2023/10/19 02:33:51;;;;;;;24.58;12.95;;;;;;;;;;5064125;28;20012;-66
2023/10/19 02:36:16;;;;;;;18.70;11.57;;;;;;;;;;5056012;28;20537;-66
2023/10/19 02:38:48;;;;;;;19.37;11.80;;;;;;;;;;5055907;28;20043;-66
2023/10/19 02:41:20;;;;;;;19.88;11.75;;;;;;;;;;5055329;28;20261;-66
2023/10/19 02:43:47;;;;;;;21.63;11.35;;;;;;;;;;5056674;28;20075;-66
2023/10/19 02:46:17;;;;;;;18.17;9.88;;;;;;;;;;5063404;28;20016;-66
2023/10/19 02:48:45;;;;;;;22.85;15.05;;;;;;;;;;5075025;28;20028;-66
2023/10/19 02:51:11;;;;;;;20.30;13.55;;;;;;;;;;5067927;28;20035;-66
2023/10/19 02:53:39;;;;;;;21.05;11.57;;;;;;;;;;5067349;28;20020;-67
2023/10/19 02:56:16;;;;;;;18.23;12.10;;;;;;;;;;5063027;28;20033;-66
2023/10/19 02:58:42;;;;;;;21.55;12.10;;;;;;;;;;5064431;28;20365;-66
2023/10/19 03:01:12;;;;;;;20.10;12.35;;;;;;;;;;5060185;28;20490;-66
2023/10/19 03:03:37;;;;;;;21.33;12.82;;;;;;;;;;5070990;28;20460;-66
2023/10/19 03:06:04;;;;;;;24.42;12.40;;;;;;;;;;5064579;28;20120;-66
2023/10/19 03:08:30;;;;;;;25.85;15.93;;;;;;;;;;5058898;28;20036;-66
2023/10/19 03:11:04;;;;;;;33.00;17.25;;;;;;;;;;5074366;28;20044;-66
2023/10/19 03:13:32;;;;;;;28.05;16.55;;;;;;;;;;5066915;28;20016;-66
2023/10/19 03:15:57;;;;;;;24.55;16.33;;;;;;;;;;5067660;28;20024;-66
2023/10/19 03:18:23;;;;;;;27.83;16.67;;;;;;;;;;5060250;28;20025;-66
2023/10/19 03:20:50;;;;;;;25.25;15.77;;;;;;;;;;5056208;28;20366;-66
2023/10/19 03:23:16;;;;;;;23.88;15.18;;;;;;;;;;5054809;28;20030;-66
2023/10/19 03:25:49;;;;;;;20.07;12.57;;;;;;;;;;5054769;28;20079;-66
2023/10/19 03:28:16;;;;;;;21.48;13.65;;;;;;;;;;5055892;28;20025;-66
2023/10/19 03:30:41;;;;;;;21.85;13.10;;;;;;;;;;5054862;28;20025;-66
2023/10/19 03:33:12;;;;;;;26.20;12.35;;;;;;;;;;5066609;28;20435;-66
2023/10/19 03:35:38;;;;;;;20.63;11.85;;;;;;;;;;5074276;28;20349;-66
2023/10/19 03:38:08;;;;;;;25.40;10.80;;;;;;;;;;5073978;28;20483;-66
2023/10/19 03:40:34;;;;;;;19.10;9.85;;;;;;;;;;5074160;28;20469;-66
2023/10/19 03:43:05;;;;;;;21.13;9.05;;;;;;;;;;5065230;28;20024;-66
2023/10/19 03:45:33;;;;;;;14.15;8.45;;;;;;;;;;5067035;28;20039;-66
2023/10/19 03:48:00;;;;;;;18.70;8.50;;;;;;;;;;5074043;28;20120;-66
2023/10/19 03:50:25;;;;;;;16.42;8.27;;;;;;;;;;5073296;28;20028;-66
2023/10/19 03:52:51;;;;;;;13.97;7.33;;;;;;;;;;5073519;28;20081;-66
2023/10/19 03:55:22;;;;;;;12.77;7.57;;;;;;;;;;5056971;28;20032;-66
2023/10/19 03:57:52;;;;;;;13.55;6.90;;;;;;;;;;5054343;28;20024;-66
2023/10/19 04:00:19;;;;;;;11.50;7.03;;;;;;;;;;5078742;28;20021;-66
2023/10/19 04:02:44;;;;;;;19.40;7.35;;;;;;;;;;5059336;28;20032;-66
2023/10/19 04:05:15;;;;;;;14.35;6.80;;;;;;;;;;5065874;28;20075;-66
2023/10/19 04:07:41;;;;;;;18.80;7.63;;;;;;;;;;5065466;28;20039;-66
2023/10/19 04:12:35;;;;;;;12.48;7.05;;;;;;;;;;5059693;28;20536;-66
2023/10/19 04:15:15;;;;;;;12.95;6.85;;;;;;;;;;5068154;28;20021;-66
2023/10/19 04:17:42;;;;;;;11.30;6.20;;;;;;;;;;5059489;28;20393;-66
2023/10/19 04:22:42;;;;;;;13.68;7.30;;;;;;;;;;5054033;28;20029;-66
2023/10/19 04:25:15;;;;;;;12.48;6.97;;;;;;;;;;5067284;28;20073;-66
2023/10/19 04:27:42;;;;;;;13.57;6.80;;;;;;;;;;5072881;28;20025;-66
2023/10/19 04:30:15;;;;;;;10.27;6.63;;;;;;;;;;5073101;28;20073;-66
2023/10/19 04:32:41;;;;;;;21.70;7.78;;;;;;;;;;5068044;28;20070;-66
2023/10/19 04:35:08;;;;;;;16.13;7.28;;;;;;;;;;5065474;28;20013;-66
2023/10/19 04:37:33;;;;;;;12.20;7.15;;;;;;;;;;5065054;28;20025;-66
2023/10/19 04:40:00;;;;;;;15.93;7.47;;;;;;;;;;5060158;28;20388;-66
2023/10/19 04:42:27;;;;;;;11.40;7.32;;;;;;;;;;5061754;28;20381;-66
2023/10/19 04:44:52;;;;;;;14.75;7.50;;;;;;;;;;5072981;28;20032;-66
2023/10/19 04:47:17;;;;;;;21.87;7.50;;;;;;;;;;5071407;28;20460;-66
2023/10/19 04:49:43;;;;;;;20.03;7.87;;;;;;;;;;5067902;28;20303;-66
2023/10/19 04:52:08;;;;;;;17.88;7.68;;;;;;;;;;5065973;28;20356;-66
2023/10/19 04:54:33;;;;;;;17.80;7.53;;;;;;;;;;5057000;28;20023;-66
2023/10/19 04:57:00;;;;;;;16.03;8.17;;;;;;;;;;5064146;28;20381;-66
2023/10/19 04:59:25;;;;;;;14.13;8.02;;;;;;;;;;5064246;28;20095;-65
2023/10/19 05:01:50;;;;;;;17.27;7.13;;;;;;;;;;5063764;28;20115;-65
2023/10/19 05:04:17;;;;;;;15.77;7.93;;;;;;;;;;5065865;28;20358;-66
2023/10/19 05:06:42;;;;;;;14.27;7.28;;;;;;;;;;5051818;28;20021;-66
2023/10/19 05:09:07;;;;;;;13.13;6.72;;;;;;;;;;5052844;28;20171;-66
2023/10/19 05:11:32;;;;;;;14.43;7.10;;;;;;;;;;5053259;28;20036;-65
2023/10/19 05:13:58;;;;;;;18.27;8.13;;;;;;;;;;5053156;28;20231;-66
2023/10/19 05:16:23;;;;;;;15.57;7.53;;;;;;;;;;5053112;28;20384;-66
2023/10/19 05:18:48;;;;;;;12.80;7.55;;;;;;;;;;5052767;28;20021;-66
2023/10/19 05:21:13;;;;;;;21.53;8.30;;;;;;;;;;5050965;28;20029;-66
2023/10/19 05:23:39;;;;;;;13.23;7.00;;;;;;;;;;5051092;28;20036;-63
2023/10/19 05:26:06;;;;;;;16.40;7.72;;;;;;;;;;5051167;28;20048;-63
2023/10/19 05:28:32;;;;;;;19.88;7.90;;;;;;;;;;5051134;28;20048;-63
2023/10/19 05:30:58;;;;;;;13.63;7.40;;;;;;;;;;5050807;28;20448;-63
2023/10/19 05:33:23;;;;;;;16.13;7.22;;;;;;;;;;5051208;28;20021;-63
2023/10/19 05:35:49;;;;;;;14.40;6.83;;;;;;;;;;5052684;28;20079;-63
2023/10/19 05:38:15;;;;;;;15.15;7.60;;;;;;;;;;5052881;28;20017;-63
2023/10/19 05:40:42;;;;;;;18.92;7.53;;;;;;;;;;5052854;28;20021;-63
2023/10/19 05:43:08;;;;;;;18.75;6.82;;;;;;;;;;5053117;28;20469;-63
2023/10/19 05:45:36;;;;;;;12.10;6.77;;;;;;;;;;5052796;28;20021;-63
2023/10/19 05:48:03;;;;;;;18.60;7.35;;;;;;;;;;5053085;28;20288;-64
2023/10/19 05:50:28;;;;;;;10.02;5.93;;;;;;;;;;5052733;28;20017;-63
2023/10/19 05:52:54;;;;;;;10.90;5.90;;;;;;;;;;5053038;28;20028;-63
2023/10/19 05:55:21;;;;;;;10.73;6.37;;;;;;;;;;5052653;28;20389;-63
2023/10/19 05:57:46;;;;;;;18.67;6.55;;;;;;;;;;5052723;28;20539;-63
2023/10/19 06:00:15;;;;;;;15.98;6.68;;;;;;;;;;5052643;28;20060;-63
2023/10/19 06:02:48;;;;;;;14.50;6.65;;;;;;;;;;5052680;28;20033;-63
2023/10/19 06:05:17;;;;;;;16.05;6.47;;;;;;;;;;5052862;28;20350;-63
2023/10/19 06:07:43;;;;;;;13.07;6.07;;;;;;;;;;5052834;28;20465;-63
2023/10/19 06:10:15;;;;;;;10.55;5.97;;;;;;;;;;5052363;28;20052;-63
2023/10/19 06:12:41;;;;;;;9.82;5.15;;;;;;;;;;5052852;28;20393;-63
2023/10/19 06:15:06;;;;;;;20.55;7.13;;;;;;;;;;5052841;28;20023;-77
2023/10/19 06:17:32;;;;;;;16.15;5.30;;;;;;;;;;5054142;28;20127;-78
2023/10/19 06:19:58;;;;;;;12.10;5.68;;;;;;;;;;5056140;28;20021;-77
2023/10/19 06:22:23;;;;;;;18.07;5.47;;;;;;;;;;5056003;28;20534;-76
2023/10/19 06:24:48;;;;;;;18.80;6.00;;;;;;;;;;5055867;28;20309;-64
2023/10/19 06:27:13;;;;;;;19.05;5.65;;;;;;;;;;5056094;28;20610;-64
2023/10/19 06:29:39;;;;;;;11.53;5.77;;;;;;;;;;5055960;28;20025;-64
2023/10/19 06:32:04;;;;;;;20.10;6.43;;;;;;;;;;5056083;28;20238;-64
2023/10/19 06:34:29;;;;;;;14.02;6.82;;;;;;;;;;5055958;28;20317;-64
2023/10/19 06:36:54;;;;;;;12.27;6.80;;;;;;;;;;5055879;28;20017;-64
2023/10/19 06:39:23;;;;;;;18.13;7.30;;;;;;;;;;5055839;28;20717;-64
2023/10/19 06:41:49;;;;;;;12.50;7.20;;;;;;;;;;5055850;28;20017;-64
2023/10/19 06:44:15;;;;;;;15.02;7.10;;;;;;;;;;5056027;28;20033;-64
2023/10/19 06:46:43;;;;;;;13.27;7.07;;;;;;;;;;5055956;28;20057;-64
2023/10/19 06:49:08;;;;;;;12.85;6.88;;;;;;;;;;5055831;28;20486;-64
2023/10/19 06:51:33;;;;;;;13.00;7.00;;;;;;;;;;5055628;28;20096;-64
2023/10/19 06:53:59;;;;;;;11.97;6.90;;;;;;;;;;5055588;28;20036;-64
2023/10/19 06:56:24;;;;;;;10.27;5.82;;;;;;;;;;5055495;28;20017;-64
2023/10/19 06:58:49;;;;;;;16.02;6.57;;;;;;;;;;5055484;28;20024;-64
2023/10/19 07:01:17;;;;;;;13.50;6.18;;;;;;;;;;5055407;28;20060;-64
2023/10/19 07:03:42;;;;;;;10.48;6.50;;;;;;;;;;5055392;28;20021;-64
2023/10/19 07:06:13;;;;;;;15.57;6.40;;;;;;;;;;5055414;28;20098;-64
2023/10/19 07:08:38;;;;;;;10.38;6.13;;;;;;;;;;5055369;28;20094;-64
2023/10/19 07:11:03;;;;;;;11.70;5.93;;;;;;;;;;5055196;28;20485;-64
2023/10/19 07:13:32;;;;;;;14.80;6.37;;;;;;;;;;5055260;28;20017;-64
2023/10/19 07:15:58;;;;;;;11.38;5.32;;;;;;;;;;5055347;28;20669;-64
2023/10/19 07:18:23;;;;;;;10.23;6.03;;;;;;;;;;5055050;28;20108;-64
2023/10/19 07:20:49;;;;;;;11.37;5.63;;;;;;;;;;5055087;28;20021;-64
2023/10/19 07:23:26;;;;;;;18.27;5.80;;;;;;;;;;5055020;28;20342;-64
2023/10/19 07:25:56;;;;;;;14.82;5.65;;;;;;;;;;5054994;28;20427;-64
2023/10/19 07:28:21;;;;;;;11.73;5.38;;;;;;;;;;5055108;28;20029;-64
2023/10/19 07:30:47;;;;;;;14.00;5.20;;;;;;;;;;5054717;28;20048;-64
2023/10/19 07:33:17;;;;;;;11.07;4.97;;;;;;;;;;5054842;28;20075;-64
2023/10/19 07:35:43;;;;;;;12.50;5.65;;;;;;;;;;5055042;28;20092;-64
2023/10/19 07:38:09;;;;;;;13.13;4.47;;;;;;;;;;5054829;28;20034;-64
2023/10/19 07:40:34;;;;;;;11.23;5.47;;;;;;;;;;5054623;28;20103;-64
2023/10/19 07:43:00;;;;;;;14.43;5.30;;;;;;;;;;5054852;28;20032;-64
2023/10/19 07:45:25;;;;;;;13.57;5.78;;;;;;;;;;5054810;28;20532;-65
2023/10/19 07:47:51;;;;;;;14.13;6.00;;;;;;;;;;5054539;28;20029;-64
2023/10/19 07:50:16;;;;;;;17.05;6.80;;;;;;;;;;5054410;28;20278;-64
2023/10/19 07:52:43;;;;;;;11.23;5.47;;;;;;;;;;5054735;28;20389;-64
2023/10/19 07:55:08;;;;;;;14.13;6.13;;;;;;;;;;5054613;28;20025;-65
2023/10/19 07:57:34;;;;;;;11.90;5.88;;;;;;;;;;5054613;28;20024;-65
2023/10/19 07:59:59;;;;;;;7.20;4.40;;;;;;;;;;5054542;28;20104;-65
2023/10/19 08:02:24;;;;;;;9.23;3.83;;;;;;;;;;5054521;28;20385;-65
2023/10/19 08:04:51;;;;;;;7.43;4.03;;;;;;;;;;5054438;28;20500;-65
2023/10/19 08:07:17;;;;;;;7.53;5.63;;;;;;;;;;5054160;28;20017;-65
2023/10/19 08:09:42;;;;;;;10.48;7.25;;;;;;;;;;5053895;28;20056;-67
2023/10/19 08:12:09;;;;;;;13.50;8.77;;;;;;;;;;5054280;28;20028;-65
2023/10/19 08:14:34;;;;;;;17.13;9.70;;;;;;;;;;5053936;28;20021;-65
2023/10/19 08:16:59;;;;;;;15.50;7.88;;;;;;;;;;5054207;28;20075;-65
2023/10/19 08:19:25;;;;;;;12.47;7.80;;;;;;;;;;5053928;28;20462;-65
2023/10/19 08:21:50;;;;;;;9.20;6.77;;;;;;;;;;5053858;28;20752;-65
2023/10/19 08:24:17;;;;;;;15.73;7.00;;;;;;;;;;5053863;28;20246;-65
2023/10/19 08:26:43;;;;;;;14.65;5.10;;;;;;;;;;5053853;28;20023;-65
2023/10/19 08:29:12;;;;;;;7.75;4.00;;;;;;;;;;5053683;28;20021;-65
2023/10/19 08:31:41;;;;;;;13.50;5.75;;;;;;;;;;5053729;28;20104;-65
2023/10/19 08:34:09;;;;;;;10.85;5.25;;;;;;;;;;5053961;28;20032;-65
2023/10/19 08:36:34;;;;;;;7.80;3.03;;;;;;;;;;5053904;28;20472;-65
2023/10/19 08:39:05;;;;;;;6.70;2.80;;;;;;;;;;5053870;28;20078;-65
2023/10/19 08:41:31;;;;;;;7.78;2.85;;;;;;;;;;5053461;28;20104;-64
2023/10/19 08:43:56;;;;;;;6.53;2.67;;;;;;;;;;5053462;28;20021;-64
2023/10/19 08:46:24;;;;;;;4.93;2.45;;;;;;;;;;5053461;28;20040;-65
2023/10/19 08:48:50;;;;;;;8.30;1.98;;;;;;;;;;5053660;28;20099;-65
2023/10/19 08:51:16;;;;;;;3.63;1.52;;;;;;;;;;5053351;28;20442;-65
2023/10/19 08:53:42;;;;;;;6.90;2.50;;;;;;;;;;5053741;28;20384;-65
2023/10/19 08:56:08;;;;;;;3.40;1.60;;;;;;;;;;5053373;28;20020;-65
2023/10/19 08:58:34;;;;;;;3.90;2.20;;;;;;;;;;5053263;28;20024;-65
2023/10/19 09:01:06;;;;;;;5.78;2.03;;;;;;;;;;5053579;28;20016;-65
2023/10/19 09:03:31;;;;;;;5.72;2.25;;;;;;;;;;5053440;28;20059;-65
2023/10/19 09:05:56;;;;;;;5.53;2.33;;;;;;;;;;5053266;28;20064;-65
2023/10/19 09:08:22;;;;;;;4.17;2.13;;;;;;;;;;5053219;28;20532;-65
2023/10/19 09:10:48;;;;;;;7.05;2.60;;;;;;;;;;5052944;28;20832;-65
2023/10/19 09:13:18;;;;;;;7.07;2.90;;;;;;;;;;5053483;28;20021;-65
2023/10/19 09:15:43;;;;;;;3.85;1.73;;;;;;;;;;5053397;28;20074;-65
2023/10/19 09:18:15;;;;;;;4.17;2.00;;;;;;;;;;5053184;28;20424;-65
2023/10/19 09:20:42;;;;;;;4.55;1.70;;;;;;;;;;5053254;28;20269;-65
2023/10/19 09:23:07;;;;;;;3.60;1.70;;;;;;;;;;5056837;28;20025;-65
2023/10/19 09:25:34;;;;;;;4.22;1.88;;;;;;;;;;5065456;28;20035;-65
2023/10/19 09:28:00;;;;;;;4.03;1.42;;;;;;;;;;5060069;28;20152;-65
2023/10/19 09:30:26;;;;;;;5.78;2.00;;;;;;;;;;5059253;28;20127;-65
2023/10/19 09:32:53;;;;;;;4.97;1.88;;;;;;;;;;5064264;28;20017;-65
2023/10/19 09:35:19;;;;;;;4.28;1.60;;;;;;;;;;5052881;28;20018;-65
2023/10/19 09:37:45;;;;;;;7.78;1.80;;;;;;;;;;5059361;28;20143;-65
2023/10/19 09:40:12;;;;;;;5.00;1.83;;;;;;;;;;5063935;28;20029;-65
2023/10/19 09:42:46;;;;;;;7.50;2.15;;;;;;;;;;5070407;28;20025;-64
2023/10/19 09:45:11;;;;;;;4.03;1.70;;;;;;;;;;5073032;28;20431;-65
2023/10/19 09:47:39;;;;;;;6.20;1.55;;;;;;;;;;5072817;28;20028;-65
2023/10/19 09:50:06;;;;;;;5.00;1.60;;;;;;;;;;5064381;28;20040;-65
2023/10/19 09:52:32;;;;;;;5.32;1.90;;;;;;;;;;5065435;28;20024;-65
2023/10/19 09:55:00;;;;;;;3.80;1.98;;;;;;;;;;5064424;28;20032;-65
2023/10/19 09:57:31;;;;;;;7.47;1.88;;;;;;;;;;5064366;28;20033;-65
2023/10/19 10:00:07;;;;;;;7.80;2.38;;;;;;;;;;5056474;28;20021;-65
2023/10/19 10:02:32;;;;;;;5.10;1.70;;;;;;;;;;5064400;28;20038;-65
2023/10/19 10:04:57;;;;;;;6.77;2.23;;;;;;;;;;5076474;28;20016;-77
2023/10/19 10:07:23;;;;;;;2.83;1.93;;;;;;;;;;5077224;28;20017;-76
2023/10/19 10:09:48;;;;;;;4.60;1.98;;;;;;;;;;5074322;28;20392;-65
2023/10/19 10:12:21;;;;;;;5.40;2.05;;;;;;;;;;5066322;28;20032;-65
2023/10/19 10:15:05;;;;;;;3.65;1.38;;;;;;;;;;5069480;28;20067;-65
2023/10/19 10:17:33;;;;;;;3.92;1.35;;;;;;;;;;5065776;28;20103;-65
2023/10/19 10:20:13;;;;;;;7.65;2.03;;;;;;;;;;5086747;28;20036;-65
2023/10/19 10:22:38;;;;;;;3.67;1.42;;;;;;;;;;5065386;28;20468;-65
2023/10/19 10:25:04;;;;;;;2.67;1.90;;;;;;;;;;5061702;28;20019;-65
2023/10/19 10:27:30;;;;;;;5.28;1.80;;;;;;;;;;5058374;28;20468;-65
2023/10/19 10:29:59;;;;;;;6.72;1.85;;;;;;;;;;5070090;28;20081;-65
2023/10/19 10:32:43;;;;;;;3.97;1.70;;;;;;;;;;5067253;28;20024;-65
2023/10/19 10:35:08;;;;;;;1.90;1.33;;;;;;;;;;5075190;28;20020;-66
2023/10/19 10:37:36;;;;;;;6.38;1.77;;;;;;;;;;5075110;28;20502;-67
2023/10/19 10:40:01;;;;;;;5.22;1.95;;;;;;;;;;5075090;28;20567;-67
2023/10/19 10:42:26;;;;;;;5.93;2.47;;;;;;;;;;5071389;28;20100;-67
2023/10/19 10:44:55;;;;;;;5.53;1.57;;;;;;;;;;5066784;28;20068;-74
2023/10/19 10:47:31;;;;;;;3.38;2.00;;;;;;;;;;5066261;28;20580;-76
2023/10/19 10:49:58;;;;;;;4.80;2.47;;;;;;;;;;5069969;28;20468;-78
2023/10/19 10:52:24;;;;;;;5.97;2.55;;;;;;;;;;5075197;28;20024;-77
2023/10/19 10:54:50;;;;;;;3.65;1.85;;;;;;;;;;5075449;28;20063;-67
2023/10/19 10:57:16;;;;;;;5.63;2.17;;;;;;;;;;5075559;28;20032;-67
2023/10/19 10:59:41;;;;;;;7.38;1.85;;;;;;;;;;5075470;28;20016;-67
2023/10/19 11:02:17;;;;;;;3.57;2.07;;;;;;;;;;5075454;28;20020;-67
2023/10/19 11:04:46;;;;;;;3.33;2.17;;;;;;;;;;5075445;28;20601;-67
2023/10/19 11:07:18;;;;;;;5.05;1.88;;;;;;;;;;5075603;28;20043;-67
2023/10/19 11:09:44;;;;;;;4.80;2.15;;;;;;;;;;5073652;28;20463;-67
2023/10/19 11:12:10;;;;;;;4.05;2.10;;;;;;;;;;5073882;28;20399;-68
2023/10/19 11:14:35;;;;;;;5.43;2.13;;;;;;;;;;5073680;28;20024;-68
2023/10/19 11:17:15;;;;;;;3.17;1.90;;;;;;;;;;5073492;28;20380;-68
2023/10/19 11:19:40;;;;;;;7.20;2.03;;;;;;;;;;5073362;28;20349;-68
2023/10/19 11:22:09;;;;;;;6.38;2.45;;;;;;;;;;5073404;28;20092;-68
2023/10/19 11:24:39;;;;;;;4.53;2.45;;;;;;;;;;5074585;28;20029;-68
2023/10/19 11:27:05;;;;;;;4.05;2.35;;;;;;;;;;5075208;28;20099;-68
2023/10/19 11:29:30;;;;;;;4.13;2.50;;;;;;;;;;5075190;28;20067;-68
2023/10/19 11:31:59;;;;;;;6.90;2.45;;;;;;;;;;5074829;28;20027;-68
2023/10/19 11:34:25;;;;;;;7.22;2.60;;;;;;;;;;5074769;28;20028;-68
2023/10/19 11:36:56;;;;;;;4.53;2.40;;;;;;;;;;5074968;28;20081;-68
2023/10/19 11:39:23;;;;;;;8.73;3.35;;;;;;;;;;5074900;28;20507;-68
2023/10/19 11:41:48;;;;;;;6.50;3.50;;;;;;;;;;5074895;28;20456;-68
2023/10/19 11:44:13;;;;;;;6.33;3.17;;;;;;;;;;5074581;28;20063;-68
2023/10/19 11:46:39;;;;;;;8.13;3.53;;;;;;;;;;5074750;28;20028;-68
2023/10/19 11:49:04;;;;;;;7.43;3.67;;;;;;;;;;5074751;28;20373;-68
2023/10/19 11:51:31;;;;;;;7.50;3.73;;;;;;;;;;5074475;28;20272;-68
2023/10/19 11:53:56;;;;;;;6.32;3.50;;;;;;;;;;5074366;28;20475;-68
2023/10/19 11:56:22;;;;;;;4.97;3.20;;;;;;;;;;5074374;28;20055;-68
2023/10/19 11:58:47;;;;;;;8.60;3.38;;;;;;;;;;5074338;28;20103;-68
2023/10/19 12:01:12;;;;;;;5.47;3.00;;;;;;;;;;5074473;28;20027;-68
2023/10/19 12:03:39;;;;;;;8.37;3.30;;;;;;;;;;5074182;28;20012;-68
2023/10/19 12:06:06;;;;;;;8.00;3.50;;;;;;;;;;5074126;28;20237;-68
2023/10/19 12:08:31;;;;;;;4.55;2.88;;;;;;;;;;5074332;28;20091;-68
2023/10/19 12:10:57;;;;;;;5.53;2.85;;;;;;;;;;5074081;28;20068;-68
2023/10/19 12:13:22;;;;;;;6.22;3.13;;;;;;;;;;5074300;28;20025;-68
2023/10/19 12:15:54;;;;;;;6.10;3.23;;;;;;;;;;5073618;28;20091;-68
2023/10/19 12:18:20;;;;;;;4.82;3.03;;;;;;;;;;5074027;28;20248;-68
2023/10/19 12:20:46;;;;;;;12.38;4.78;;;;;;;;;;5073948;28;20012;-68
2023/10/19 12:23:11;;;;;;;11.82;5.47;;;;;;;;;;5070082;28;20017;-68
2023/10/19 12:25:38;;;;;;;9.52;3.75;;;;;;;;;;5060366;28;20017;-67
2023/10/19 12:28:04;;;;;;;7.70;4.97;;;;;;;;;;5071418;28;20024;-67
2023/10/19 12:30:32;;;;;;;14.07;5.95;;;;;;;;;;5071558;28;20028;-67
2023/10/19 12:33:00;;;;;;;15.10;8.48;;;;;;;;;;5060781;28;20025;-67
2023/10/19 12:35:42;;;;;;;7.53;4.40;;;;;;;;;;5065688;28;20045;-67
2023/10/19 12:38:07;;;;;;;7.73;4.50;;;;;;;;;;5057742;28;20035;-67
2023/10/19 12:40:35;;;;;;;7.93;4.43;;;;;;;;;;5061325;28;20270;-64
2023/10/19 12:43:03;;;;;;;9.52;6.63;;;;;;;;;;5053810;28;20234;-64
2023/10/19 12:45:28;;;;;;;6.47;4.85;;;;;;;;;;5053767;28;20024;-64
2023/10/19 12:47:54;;;;;;;14.27;8.73;;;;;;;;;;5053497;28;20408;-64
2023/10/19 12:50:23;;;;;;;15.25;12.80;;;;;;;;;;5053718;28;20024;-64
2023/10/19 12:52:51;;;;;;;8.15;6.18;;;;;;;;;;5053467;28;20017;-64
2023/10/19 12:55:17;;;;;;;9.73;6.20;;;;;;;;;;5053527;28;20477;-64
2023/10/19 12:57:43;;;;;;;8.68;5.82;;;;;;;;;;5053393;28;20021;-64
2023/10/19 13:00:29;;;;;;;9.00;5.30;;;;;;;;;;5052881;28;20078;-64
2023/10/19 13:02:59;;;;;;;7.10;5.05;;;;;;;;;;5052741;28;20024;-64
2023/10/19 13:05:25;;;;;;;8.10;4.70;;;;;;;;;;5052680;28;20366;-64
2023/10/19 13:07:51;;;;;;;8.75;5.63;;;;;;;;;;5052600;28;20493;-64
2023/10/19 13:10:16;;;;;;;11.13;8.07;;;;;;;;;;5052210;28;20083;-64
2023/10/19 13:12:41;;;;;;;8.20;5.55;;;;;;;;;;5052633;28;20067;-64
2023/10/19 13:15:12;;;;;;;7.28;5.45;;;;;;;;;;5052771;28;20017;-64
2023/10/19 13:17:38;;;;;;;11.60;5.07;;;;;;;;;;5053403;28;20030;-64
2023/10/19 13:20:15;;;;;;;9.25;6.72;;;;;;;;;;5053044;28;20381;-64
2023/10/19 13:22:41;;;;;;;9.48;6.10;;;;;;;;;;5053045;28;20074;-64
2023/10/19 13:25:09;;;;;;;14.00;6.22;;;;;;;;;;5053038;28;20115;-64
2023/10/19 13:27:34;;;;;;;9.40;6.32;;;;;;;;;;5056949;28;20018;-64
2023/10/19 13:29:59;;;;;;;8.13;5.63;;;;;;;;;;5057410;28;20025;-64
2023/10/19 13:32:28;;;;;;;8.97;5.60;;;;;;;;;;5057374;28;20075;-64
2023/10/19 13:34:53;;;;;;;9.35;5.03;;;;;;;;;;5057371;28;20024;-64
2023/10/19 13:37:18;;;;;;;9.13;5.20;;;;;;;;;;5057116;28;20389;-64
2023/10/19 13:39:44;;;;;;;9.33;5.10;;;;;;;;;;5056952;28;20028;-64
2023/10/19 13:42:09;;;;;;;9.07;5.28;;;;;;;;;;5057666;28;20013;-64
2023/10/19 13:44:35;;;;;;;7.90;4.67;;;;;;;;;;5056880;28;20021;-64
2023/10/19 13:47:04;;;;;;;8.23;5.35;;;;;;;;;;5057107;28;20260;-64
2023/10/19 13:49:29;;;;;;;9.48;5.15;;;;;;;;;;5057072;28;20441;-64
2023/10/19 13:51:55;;;;;;;6.50;5.15;;;;;;;;;;5056772;28;20074;-64
2023/10/19 13:54:20;;;;;;;6.93;4.60;;;;;;;;;;5056587;28;20021;-64
2023/10/19 13:56:46;;;;;;;8.45;4.55;;;;;;;;;;5056658;28;20477;-79
2023/10/19 13:59:12;;;;;;;8.27;4.53;;;;;;;;;;5056889;28;20021;-76
2023/10/19 14:01:37;;;;;;;6.30;4.18;;;;;;;;;;5056496;28;20025;-76
2023/10/19 14:04:03;;;;;;;9.10;5.32;;;;;;;;;;5055376;28;20028;-76
2023/10/19 14:06:28;;;;;;;5.72;4.22;;;;;;;;;;5056510;28;20060;-79
2023/10/19 14:08:54;;;;;;;8.40;5.40;;;;;;;;;;5056276;28;20397;-79
2023/10/19 14:11:21;;;;;;;7.57;5.30;;;;;;;;;;5056436;28;20461;-64
2023/10/19 14:13:46;;;;;;;12.13;9.55;;;;;;;;;;5056651;28;20415;-64
2023/10/19 14:16:12;;;;;;;9.45;6.13;;;;;;;;;;5056676;28;20028;-64
2023/10/19 14:18:37;;;;;;;52.28;31.15;;;;;;;;;;5056540;28;20047;-64
2023/10/19 14:21:13;;;;;;;49.15;29.63;;;;;;;;;;5056370;28;20017;-64
2023/10/19 14:23:40;;;;;;;11.05;7.05;;;;;;;;;;5056384;28;20025;-64
2023/10/19 14:26:05;;;;;;;9.00;7.35;;;;;;;;;;5056047;28;20025;-64
2023/10/19 14:28:31;;;;;;;12.97;8.80;;;;;;;;;;5056113;28;20075;-64
2023/10/19 14:30:56;;;;;;;8.48;6.43;;;;;;;;;;5056090;28;20021;-64
2023/10/19 14:33:21;;;;;;;12.47;6.00;;;;;;;;;;5055988;28;20108;-64
2023/10/19 14:35:47;;;;;;;13.53;8.40;;;;;;;;;;5056218;28;20027;-64
2023/10/19 14:38:14;;;;;;;7.45;4.55;;;;;;;;;;5055440;28;20109;-64
2023/10/19 14:40:44;;;;;;;14.88;8.63;;;;;;;;;;5055755;28;20029;-64
2023/10/19 14:43:10;;;;;;;11.23;6.43;;;;;;;;;;5055772;28;20078;-64
2023/10/19 14:45:36;;;;;;;11.55;7.97;;;;;;;;;;5055844;28;20021;-69
2023/10/19 14:48:08;;;;;;;9.35;5.22;;;;;;;;;;5055938;28;20036;-69